Time;durP1;ratioP1;P1;durP2;ratioP2;P2;SDS_P1;SDS_P2;PMS_P1;PMS_P2;Temp;Humidity;BMP_temperature;BMP_pressure;BME280_temperature;BME280_humidity;BME280_pressure;Samples;Min_cycle;Max_cycle;Signal;HPM_P1;HPM_P2
2022/07/28 00:00:09;;;;;;;3.97;2.47;;;;;;;;;;4898647;29;20025;-54
2022/07/28 00:02:35;;;;;;;3.90;3.05;;;;;;;;;;4898594;29;20438;-47
2022/07/28 00:05:01;;;;;;;4.68;2.97;;;;;;;;;;4898226;29;20024;-51
2022/07/28 00:07:26;;;;;;;5.72;2.75;;;;;;;;;;4897011;29;20039;-43
2022/07/28 00:09:52;;;;;;;3.85;3.15;;;;;;;;;;4898209;29;20028;-46
2022/07/28 00:12:17;;;;;;;9.00;3.00;;;;;;;;;;4898152;29;20025;-42
2022/07/28 00:14:43;;;;;;;5.55;3.20;;;;;;;;;;4898402;29;20029;-47
2022/07/28 00:17:08;;;;;;;4.65;3.10;;;;;;;;;;4898115;29;20111;-42
2022/07/28 00:19:34;;;;;;;5.35;3.38;;;;;;;;;;4897997;29;20032;-42
2022/07/28 00:21:59;;;;;;;6.18;3.17;;;;;;;;;;4898244;29;20033;-47
2022/07/28 00:24:25;;;;;;;4.28;3.33;;;;;;;;;;4898175;29;20529;-42
2022/07/28 00:26:50;;;;;;;4.75;3.50;;;;;;;;;;4897725;29;20020;-51
2022/07/28 00:29:16;;;;;;;3.78;3.20;;;;;;;;;;4896695;29;20068;-43
2022/07/28 00:31:41;;;;;;;7.60;3.10;;;;;;;;;;4896899;29;20486;-43
2022/07/28 00:34:07;;;;;;;6.85;3.50;;;;;;;;;;4897691;29;20055;-42
2022/07/28 00:36:32;;;;;;;5.60;3.47;;;;;;;;;;4897796;29;20035;-43
2022/07/28 00:38:58;;;;;;;3.35;3.00;;;;;;;;;;4897559;29;20032;-43
2022/07/28 00:41:23;;;;;;;5.70;3.47;;;;;;;;;;4897961;29;20032;-43
2022/07/28 00:43:50;;;;;;;5.03;3.63;;;;;;;;;;4897698;29;20107;-43
2022/07/28 00:46:19;;;;;;;8.48;3.20;;;;;;;;;;4897961;29;20033;-43
2022/07/28 00:48:49;;;;;;;4.57;3.65;;;;;;;;;;4897902;29;20054;-44
2022/07/28 00:51:16;;;;;;;5.82;4.22;;;;;;;;;;4897641;29;20115;-43
2022/07/28 00:53:42;;;;;;;5.13;3.90;;;;;;;;;;4897594;29;20481;-45
2022/07/28 00:56:08;;;;;;;5.93;3.50;;;;;;;;;;4897811;29;20033;-43
2022/07/28 00:58:37;;;;;;;4.22;3.55;;;;;;;;;;4897837;29;20110;-43
2022/07/28 01:01:04;;;;;;;9.95;3.72;;;;;;;;;;4897603;29;20128;-42
2022/07/28 01:03:31;;;;;;;5.65;4.10;;;;;;;;;;4897501;29;20473;-43
2022/07/28 01:05:59;;;;;;;5.40;3.60;;;;;;;;;;4897797;29;20111;-43
2022/07/28 01:08:40;;;;;;;6.72;3.97;;;;;;;;;;4897643;29;20387;-44
2022/07/28 01:11:13;;;;;;;5.45;3.65;;;;;;;;;;4897666;29;20029;-43
2022/07/28 01:14:07;;;;;;;4.00;3.60;;;;;;;;;;4897435;29;20029;-43
2022/07/28 01:16:37;;;;;;;5.78;3.90;;;;;;;;;;4897663;29;20054;-42
2022/07/28 01:19:21;;;;;;;9.75;4.07;;;;;;;;;;4897312;29;20470;-43
2022/07/28 01:21:47;;;;;;;5.40;4.18;;;;;;;;;;4900232;29;20028;-43
2022/07/28 01:24:24;;;;;;;4.38;3.97;;;;;;;;;;4901229;29;20481;-43
2022/07/28 01:27:06;;;;;;;4.45;4.03;;;;;;;;;;4900001;29;20112;-43
2022/07/28 01:30:00;;;;;;;7.45;4.43;;;;;;;;;;4901075;29;20164;-43
2022/07/28 01:32:29;;;;;;;7.40;3.92;;;;;;;;;;4900955;29;20032;-43
2022/07/28 01:35:07;;;;;;;5.07;3.88;;;;;;;;;;4901366;29;20541;-43
2022/07/28 01:37:38;;;;;;;6.03;4.22;;;;;;;;;;4901065;29;20029;-46
2022/07/28 01:40:07;;;;;;;5.28;3.88;;;;;;;;;;4901259;29;20474;-42
2022/07/28 01:42:37;;;;;;;5.07;3.92;;;;;;;;;;4901292;29;20115;-49
2022/07/28 01:45:05;;;;;;;6.05;3.72;;;;;;;;;;4900740;29;20127;-48
2022/07/28 01:47:33;;;;;;;5.15;4.13;;;;;;;;;;4901120;29;20051;-44
2022/07/28 01:50:01;;;;;;;4.70;3.95;;;;;;;;;;4901053;29;20028;-44
2022/07/28 01:52:29;;;;;;;5.53;4.07;;;;;;;;;;4901051;29;20108;-43
2022/07/28 01:54:56;;;;;;;3.95;3.55;;;;;;;;;;4900700;29;20056;-43
2022/07/28 01:57:24;;;;;;;4.90;4.30;;;;;;;;;;4900963;29;20035;-43
2022/07/28 01:59:50;;;;;;;5.35;4.25;;;;;;;;;;4900579;29;20033;-43
2022/07/28 02:02:18;;;;;;;6.28;3.92;;;;;;;;;;4899367;29;20088;-43
2022/07/28 02:04:44;;;;;;;4.60;4.10;;;;;;;;;;4900809;29;20024;-43
2022/07/28 02:07:10;;;;;;;5.63;4.22;;;;;;;;;;4900714;29;20028;-43
2022/07/28 02:09:36;;;;;;;5.53;4.10;;;;;;;;;;4900635;29;20032;-43
2022/07/28 02:12:04;;;;;;;7.88;4.00;;;;;;;;;;4900371;29;20488;-44
2022/07/28 02:14:31;;;;;;;6.93;4.20;;;;;;;;;;4900595;29;20037;-43
2022/07/28 02:17:06;;;;;;;5.43;4.30;;;;;;;;;;4900599;29;20032;-43
2022/07/28 02:19:33;;;;;;;4.53;3.95;;;;;;;;;;4900592;29;20031;-43
2022/07/28 02:22:01;;;;;;;7.13;4.72;;;;;;;;;;4900500;29;20108;-43
2022/07/28 02:24:28;;;;;;;5.88;3.92;;;;;;;;;;4900290;29;20473;-43
2022/07/28 02:27:02;;;;;;;5.70;4.30;;;;;;;;;;4900065;29;20537;-43
2022/07/28 02:29:32;;;;;;;8.07;4.38;;;;;;;;;;4900388;29;20025;-43
2022/07/28 02:32:07;;;;;;;;;;;;;;;;;;4898418;29;20508;-44
2022/07/28 02:34:37;;;;;;;4.70;3.65;;;;;;;;;;4900104;29;19922;-43
2022/07/28 02:37:04;;;;;;;8.65;4.03;;;;;;;;;;4900186;29;20033;-43
2022/07/28 02:39:35;;;;;;;5.05;4.07;;;;;;;;;;4900165;29;20413;-43
2022/07/28 02:42:05;;;;;;;5.40;4.10;;;;;;;;;;4899902;29;20386;-43
2022/07/28 02:44:38;;;;;;;4.95;4.25;;;;;;;;;;4899783;29;20036;-43
2022/07/28 02:47:07;;;;;;;4.55;4.15;;;;;;;;;;4899832;29;20033;-43
2022/07/28 02:49:35;;;;;;;7.07;4.10;;;;;;;;;;4899741;29;20033;-44
2022/07/28 02:52:02;;;;;;;4.55;3.90;;;;;;;;;;4899951;29;20033;-43
2022/07/28 02:54:29;;;;;;;5.03;4.03;;;;;;;;;;4899934;29;20035;-43
2022/07/28 02:56:57;;;;;;;4.53;4.05;;;;;;;;;;4899910;29;20439;-43
2022/07/28 02:59:24;;;;;;;4.63;4.10;;;;;;;;;;4899598;29;20039;-43
2022/07/28 03:01:50;;;;;;;8.23;4.10;;;;;;;;;;4899844;29;20024;-44
2022/07/28 03:04:55;;;;;;;7.75;4.57;;;;;;;;;;4899771;29;20434;-43
2022/07/28 03:07:01;;;;;;;5.63;3.85;;;;;;;;;;4899389;29;20035;-45
2022/07/28 03:09:27;;;;;;;7.53;4.13;;;;;;;;;;4899596;29;20036;-43
2022/07/28 03:11:53;;;;;;;4.38;3.97;;;;;;;;;;4899590;29;20688;-43
2022/07/28 03:14:18;;;;;;;5.95;4.65;;;;;;;;;;4899534;29;20032;-49
2022/07/28 03:16:43;;;;;;;4.65;4.20;;;;;;;;;;4899222;29;20039;-42
2022/07/28 03:19:10;;;;;;;4.63;4.22;;;;;;;;;;4899433;29;20123;-42
2022/07/28 03:21:36;;;;;;;4.40;4.00;;;;;;;;;;4899433;29;20393;-42
2022/07/28 03:24:02;;;;;;;5.50;3.92;;;;;;;;;;4899416;29;20028;-43
2022/07/28 03:26:39;;;;;;;4.82;4.10;;;;;;;;;;4899346;29;20020;-43
2022/07/28 03:29:06;;;;;;;5.13;4.32;;;;;;;;;;4899207;29;20036;-43
2022/07/28 03:31:32;;;;;;;5.30;4.00;;;;;;;;;;4899213;29;20064;-46
2022/07/28 03:33:59;;;;;;;4.47;3.95;;;;;;;;;;4899207;29;20032;-42
2022/07/28 03:36:31;;;;;;;6.05;4.40;;;;;;;;;;4898815;29;20112;-43
2022/07/28 03:39:00;;;;;;;6.65;4.18;;;;;;;;;;4898911;29;20102;-43
2022/07/28 03:41:28;;;;;;;14.55;4.57;;;;;;;;;;4898862;29;20047;-43
2022/07/28 03:43:54;;;;;;;6.93;4.40;;;;;;;;;;4898424;29;20429;-43
2022/07/28 03:46:20;;;;;;;12.77;4.40;;;;;;;;;;4899015;29;20052;-44
2022/07/28 03:48:45;;;;;;;4.90;4.30;;;;;;;;;;4898611;29;20036;-43
2022/07/28 03:51:11;;;;;;;8.13;4.40;;;;;;;;;;4898953;29;20025;-43
2022/07/28 03:53:37;;;;;;;7.60;4.82;;;;;;;;;;4898865;29;20032;-43
2022/07/28 03:56:03;;;;;;;14.73;5.03;;;;;;;;;;4898729;29;20035;-46
2022/07/28 03:58:29;;;;;;;11.80;4.55;;;;;;;;;;4898753;29;20029;-43
2022/07/28 04:00:55;;;;;;;15.27;5.57;;;;;;;;;;4898725;29;20024;-43
2022/07/28 04:03:21;;;;;;;7.00;4.20;;;;;;;;;;4898366;29;20032;-44
2022/07/28 04:05:46;;;;;;;7.50;4.63;;;;;;;;;;4898324;29;20060;-43
2022/07/28 04:08:12;;;;;;;13.10;4.43;;;;;;;;;;4898224;29;20067;-43
2022/07/28 04:10:38;;;;;;;6.35;4.63;;;;;;;;;;4898222;29;20172;-47
2022/07/28 04:13:03;;;;;;;6.95;4.25;;;;;;;;;;4898174;29;20036;-44
2022/07/28 04:15:31;;;;;;;6.82;4.40;;;;;;;;;;4898454;29;20025;-43
2022/07/28 04:17:58;;;;;;;6.03;4.35;;;;;;;;;;4898104;29;20488;-44
2022/07/28 04:20:25;;;;;;;4.53;4.13;;;;;;;;;;4898379;29;20048;-45
2022/07/28 04:22:51;;;;;;;8.60;4.57;;;;;;;;;;4898347;29;20141;-44
2022/07/28 04:25:20;;;;;;;9.77;4.47;;;;;;;;;;4898336;29;20040;-42
2022/07/28 04:27:46;;;;;;;9.88;4.10;;;;;;;;;;4898189;29;20120;-46
2022/07/28 04:30:16;;;;;;;12.00;4.20;;;;;;;;;;4898214;29;20503;-43
2022/07/28 04:32:46;;;;;;;;;;;;;;;;;;4898367;29;20112;-42
2022/07/28 04:35:11;;;;;;;;;;;;;;;;;;4898321;29;19998;-45
2022/07/28 04:37:37;;;;;;;6.35;4.50;;;;;;;;;;4897864;29;20007;-43
2022/07/28 04:40:05;;;;;;;4.90;4.30;;;;;;;;;;4898029;29;20060;-42
2022/07/28 04:42:30;;;;;;;4.95;4.45;;;;;;;;;;4897539;29;20040;-43
2022/07/28 04:44:55;;;;;;;5.20;4.53;;;;;;;;;;4897526;29;20049;-43
2022/07/28 04:47:23;;;;;;;27.67;4.93;;;;;;;;;;4897645;29;20489;-49
2022/07/28 04:49:48;;;;;;;7.20;4.45;;;;;;;;;;4897883;29;20039;-48
2022/07/28 04:52:14;;;;;;;7.70;4.03;;;;;;;;;;4897969;29;20036;-45
2022/07/28 04:54:40;;;;;;;7.68;3.80;;;;;;;;;;4897489;29;20048;-48
2022/07/28 04:57:06;;;;;;;9.25;4.22;;;;;;;;;;4897421;29;20033;-44
2022/07/28 04:59:31;;;;;;;4.85;3.95;;;;;;;;;;4897612;29;20047;-48
2022/07/28 05:01:58;;;;;;;7.03;4.25;;;;;;;;;;4897461;29;20036;-49
2022/07/28 05:04:24;;;;;;;4.65;3.88;;;;;;;;;;4897775;29;20429;-57
2022/07/28 05:06:49;;;;;;;5.47;3.65;;;;;;;;;;4897733;29;20099;-46
2022/07/28 05:09:15;;;;;;;6.07;4.13;;;;;;;;;;4897666;29;20504;-47
2022/07/28 05:11:41;;;;;;;13.02;4.10;;;;;;;;;;4897651;29;20478;-44
2022/07/28 05:14:06;;;;;;;9.05;3.88;;;;;;;;;;4897684;29;20389;-43
2022/07/28 05:16:31;;;;;;;5.68;4.40;;;;;;;;;;4897596;29;20060;-51
2022/07/28 05:18:57;;;;;;;5.90;3.90;;;;;;;;;;4897345;29;20036;-51
2022/07/28 05:21:22;;;;;;;4.80;3.70;;;;;;;;;;4897426;29;20039;-53
2022/07/28 05:23:48;;;;;;;3.90;3.25;;;;;;;;;;4897264;29;20060;-44
2022/07/28 05:26:13;;;;;;;3.63;3.15;;;;;;;;;;4897478;29;20029;-58
2022/07/28 05:28:39;;;;;;;2.88;2.67;;;;;;;;;;4897399;29;20117;-57
2022/07/28 05:31:06;;;;;;;3.15;2.85;;;;;;;;;;4897492;29;20355;-45
2022/07/28 05:33:32;;;;;;;4.28;3.60;;;;;;;;;;4897211;29;20473;-51
2022/07/28 05:35:58;;;;;;;3.53;3.22;;;;;;;;;;4897446;29;20039;-57
2022/07/28 05:38:24;;;;;;;6.13;3.45;;;;;;;;;;4897204;29;20029;-47
2022/07/28 05:40:50;;;;;;;7.75;3.95;;;;;;;;;;4897472;29;20029;-48
2022/07/28 05:43:19;;;;;;;4.18;3.60;;;;;;;;;;4897280;29;20080;-47
2022/07/28 05:45:45;;;;;;;9.83;3.50;;;;;;;;;;4897557;29;20071;-50
2022/07/28 05:48:11;;;;;;;3.38;3.08;;;;;;;;;;4897085;29;20032;-53
2022/07/28 05:50:36;;;;;;;6.22;3.58;;;;;;;;;;4897092;29;20032;-48
2022/07/28 05:53:01;;;;;;;4.45;3.40;;;;;;;;;;4896974;29;20032;-53
2022/07/28 05:55:27;;;;;;;8.38;4.32;;;;;;;;;;4896871;29;20029;-47
2022/07/28 05:57:53;;;;;;;6.82;3.58;;;;;;;;;;4896906;29;20033;-43
2022/07/28 06:00:21;;;;;;;3.35;2.05;;;;;;;;;;4896981;29;20084;-47
2022/07/28 06:02:49;;;;;;;4.47;3.38;;;;;;;;;;4897235;29;20388;-50
2022/07/28 06:05:17;;;;;;;3.95;3.15;;;;;;;;;;4896966;29;20434;-45
2022/07/28 06:07:43;;;;;;;6.32;3.78;;;;;;;;;;4899666;29;20032;-49
2022/07/28 06:10:09;;;;;;;3.38;3.00;;;;;;;;;;4900566;29;20115;-47
2022/07/28 06:12:43;;;;;;;6.70;3.80;;;;;;;;;;4900631;29;20411;-50
2022/07/28 06:15:17;;;;;;;6.45;3.22;;;;;;;;;;4900603;29;20093;-43
2022/07/28 06:17:43;;;;;;;4.00;2.78;;;;;;;;;;4900607;29;20032;-47
2022/07/28 06:20:09;;;;;;;3.65;3.10;;;;;;;;;;4900580;29;20096;-46
2022/07/28 06:22:51;;;;;;;3.53;3.22;;;;;;;;;;4900170;29;20367;-46
2022/07/28 06:25:21;;;;;;;5.22;3.00;;;;;;;;;;4900472;29;20037;-46
2022/07/28 06:27:51;;;;;;;3.65;2.78;;;;;;;;;;4900165;29;20549;-49
2022/07/28 06:30:18;;;;;;;6.15;2.63;;;;;;;;;;4900379;29;20032;-49
2022/07/28 06:32:44;;;;;;;5.38;2.92;;;;;;;;;;4900074;29;20084;-48
2022/07/28 06:35:13;;;;;;;4.80;2.90;;;;;;;;;;4900234;29;20433;-50
2022/07/28 06:37:39;;;;;;;3.83;2.72;;;;;;;;;;4899989;29;20032;-49
2022/07/28 06:40:06;;;;;;;4.82;2.90;;;;;;;;;;4900222;29;20040;-46
2022/07/28 06:42:31;;;;;;;3.70;2.28;;;;;;;;;;4899922;29;20478;-50
2022/07/28 06:44:57;;;;;;;3.45;2.88;;;;;;;;;;4899432;29;20059;-54
2022/07/28 06:47:22;;;;;;;11.27;3.70;;;;;;;;;;4899819;29;20100;-42
2022/07/28 06:49:48;;;;;;;4.60;3.10;;;;;;;;;;4899837;29;20036;-50
2022/07/28 06:52:13;;;;;;;5.32;2.90;;;;;;;;;;4899851;29;20029;-50
2022/07/28 06:54:39;;;;;;;3.67;2.95;;;;;;;;;;4899677;29;20025;-52
2022/07/28 06:57:05;;;;;;;4.35;3.20;;;;;;;;;;4899908;29;20084;-51
2022/07/28 06:59:30;;;;;;;3.47;2.97;;;;;;;;;;4899829;29;20073;-53
2022/07/28 07:02:00;;;;;;;6.35;3.35;;;;;;;;;;4899758;29;20032;-52
2022/07/28 07:04:26;;;;;;;4.32;3.05;;;;;;;;;;4899462;29;20048;-53
2022/07/28 07:06:52;;;;;;;4.70;3.13;;;;;;;;;;4899684;29;20429;-50
2022/07/28 07:09:17;;;;;;;4.13;3.20;;;;;;;;;;4899531;29;20029;-45
2022/07/28 07:11:43;;;;;;;4.35;3.20;;;;;;;;;;4899599;29;20051;-50
2022/07/28 07:14:08;;;;;;;4.43;3.03;;;;;;;;;;4899517;29;20036;-47
2022/07/28 07:16:33;;;;;;;6.68;2.85;;;;;;;;;;4899229;29;20501;-45
2022/07/28 07:18:59;;;;;;;6.95;2.97;;;;;;;;;;4897508;29;20119;-48
2022/07/28 07:21:24;;;;;;;5.18;3.15;;;;;;;;;;4899181;29;20549;-49
2022/07/28 07:23:50;;;;;;;5.68;3.30;;;;;;;;;;4899079;29;20180;-47
2022/07/28 07:26:15;;;;;;;4.18;3.30;;;;;;;;;;4899030;29;20032;-48
2022/07/28 07:28:41;;;;;;;3.40;2.90;;;;;;;;;;4899133;29;20031;-51
2022/07/28 07:31:06;;;;;;;6.03;2.88;;;;;;;;;;4899356;29;20509;-52
2022/07/28 07:33:32;;;;;;;6.25;3.25;;;;;;;;;;4898906;29;20024;-48
2022/07/28 07:35:57;;;;;;;3.20;2.90;;;;;;;;;;4898859;29;20149;-52
2022/07/28 07:38:23;;;;;;;8.38;2.90;;;;;;;;;;4898848;29;20040;-52
2022/07/28 07:40:50;;;;;;;4.50;2.83;;;;;;;;;;4899056;29;20028;-48
2022/07/28 07:43:16;;;;;;;5.70;3.30;;;;;;;;;;4899027;29;20441;-45
2022/07/28 07:45:42;;;;;;;4.85;3.22;;;;;;;;;;4898681;29;20108;-49
2022/07/28 07:48:07;;;;;;;5.50;3.05;;;;;;;;;;4898758;29;20029;-50
2022/07/28 07:50:34;;;;;;;7.82;3.20;;;;;;;;;;4898635;29;20080;-51
2022/07/28 07:52:59;;;;;;;4.20;3.25;;;;;;;;;;4898599;29;20489;-47
2022/07/28 07:55:26;;;;;;;6.07;3.38;;;;;;;;;;4898806;29;20029;-45
2022/07/28 07:57:51;;;;;;;3.22;2.67;;;;;;;;;;4898799;29;20020;-50
2022/07/28 08:00:17;;;;;;;5.80;3.00;;;;;;;;;;4898352;29;20092;-46
2022/07/28 08:02:43;;;;;;;3.20;2.90;;;;;;;;;;4898637;29;20047;-45
2022/07/28 08:05:09;;;;;;;3.25;2.80;;;;;;;;;;4898583;29;20091;-54
2022/07/28 08:07:35;;;;;;;3.90;3.08;;;;;;;;;;4898263;29;20036;-52
2022/07/28 08:10:01;;;;;;;7.75;3.42;;;;;;;;;;4898180;29;20119;-47
2022/07/28 08:12:26;;;;;;;3.80;2.97;;;;;;;;;;4898522;29;20112;-44
2022/07/28 08:14:52;;;;;;;20.92;3.58;;;;;;;;;;4898150;29;20033;-54
2022/07/28 08:17:18;;;;;;;23.58;3.95;;;;;;;;;;4898430;29;20040;-48
2022/07/28 08:19:43;;;;;;;9.82;3.28;;;;;;;;;;4898092;29;20031;-44
2022/07/28 08:22:09;;;;;;;5.78;3.30;;;;;;;;;;4898295;29;20032;-44
2022/07/28 08:24:34;;;;;;;3.05;2.78;;;;;;;;;;4896214;29;20502;-43
2022/07/28 08:27:03;;;;;;;4.95;2.85;;;;;;;;;;4896437;29;20104;-44
2022/07/28 08:29:29;;;;;;;8.68;3.30;;;;;;;;;;4896369;29;20119;-44
2022/07/28 08:31:54;;;;;;;3.60;2.78;;;;;;;;;;4895781;29;20128;-46
2022/07/28 08:34:20;;;;;;;3.30;3.00;;;;;;;;;;4898660;29;20028;-45
2022/07/28 08:36:45;;;;;;;8.70;3.40;;;;;;;;;;4914214;29;20421;-44
2022/07/28 08:39:11;;;;;;;7.18;3.33;;;;;;;;;;4915892;29;20024;-50
2022/07/28 08:41:53;;;;;;;6.45;3.00;;;;;;;;;;4916951;29;20032;-56
2022/07/28 08:44:26;;;;;;;8.52;2.95;;;;;;;;;;4910794;29;20052;-53
2022/07/28 08:46:52;;;;;;;6.40;3.00;;;;;;;;;;4905500;29;20096;-56
2022/07/28 08:49:17;;;;;;;3.30;2.55;;;;;;;;;;4905469;29;20429;-54
2022/07/28 08:51:46;;;;;;;7.60;2.50;;;;;;;;;;4911247;29;20414;-48
2022/07/28 08:54:15;;;;;;;6.45;3.00;;;;;;;;;;4914849;29;20038;-48
2022/07/28 08:56:43;;;;;;;3.78;2.88;;;;;;;;;;4915012;29;20024;-52
2022/07/28 08:59:08;;;;;;;5.10;2.90;;;;;;;;;;4901575;29;20035;-49
2022/07/28 09:01:35;;;;;;;4.90;3.08;;;;;;;;;;4899421;29;20385;-50
2022/07/28 09:04:02;;;;;;;5.45;3.17;;;;;;;;;;4910484;29;20039;-46
2022/07/28 09:06:28;;;;;;;4.70;2.78;;;;;;;;;;4915755;29;20040;-46
2022/07/28 09:08:53;;;;;;;5.22;3.00;;;;;;;;;;4915295;29;20036;-46
2022/07/28 09:11:18;;;;;;;7.60;2.97;;;;;;;;;;4915036;29;20501;-51
2022/07/28 09:13:44;;;;;;;9.43;2.80;;;;;;;;;;4916239;29;20029;-45
2022/07/28 09:16:13;;;;;;;6.80;3.38;;;;;;;;;;4916476;29;20029;-45
2022/07/28 09:18:39;;;;;;;8.27;3.10;;;;;;;;;;4916525;29;20035;-44
2022/07/28 09:21:05;;;;;;;5.13;3.00;;;;;;;;;;4916438;29;20028;-47
2022/07/28 09:23:47;;;;;;;5.45;3.15;;;;;;;;;;4916138;29;20032;-51
2022/07/28 09:26:14;;;;;;;5.25;2.80;;;;;;;;;;4907598;29;20364;-47
2022/07/28 09:28:53;;;;;;;4.63;2.70;;;;;;;;;;4913862;29;20377;-49
2022/07/28 09:31:21;;;;;;;4.32;2.67;;;;;;;;;;4913206;29;20040;-46
2022/07/28 09:33:54;;;;;;;3.88;2.90;;;;;;;;;;4915990;29;20051;-48
2022/07/28 09:36:20;;;;;;;5.50;2.60;;;;;;;;;;4916302;29;20149;-51
2022/07/28 09:38:46;;;;;;;7.93;2.65;;;;;;;;;;4915986;29;20373;-44
2022/07/28 09:41:17;;;;;;;7.30;3.58;;;;;;;;;;4899292;29;20065;-48
2022/07/28 09:43:44;;;;;;;10.48;2.72;;;;;;;;;;4897788;29;20143;-46
2022/07/28 09:46:10;;;;;;;4.15;2.88;;;;;;;;;;4899232;29;20037;-51
2022/07/28 09:48:48;;;;;;;5.80;2.78;;;;;;;;;;4902256;29;20502;-51
2022/07/28 09:51:15;;;;;;;6.03;3.35;;;;;;;;;;4907067;29;20085;-45
2022/07/28 09:53:41;;;;;;;5.28;3.17;;;;;;;;;;4909292;29;20032;-47
2022/07/28 09:56:07;;;;;;;8.48;2.72;;;;;;;;;;4909479;29;20032;-44
2022/07/28 09:58:34;;;;;;;6.45;3.15;;;;;;;;;;4915438;29;20052;-48
2022/07/28 10:01:11;;;;;;;40.75;4.68;;;;;;;;;;4917208;29;20035;-47
2022/07/28 10:03:38;;;;;;;6.88;2.80;;;;;;;;;;4916245;29;20362;-48
2022/07/28 10:06:10;;;;;;;2.90;2.55;;;;;;;;;;4905705;29;20054;-49
2022/07/28 10:08:57;;;;;;;2.40;2.20;;;;;;;;;;4904279;29;20398;-46
2022/07/28 10:11:26;;;;;;;3.30;2.40;;;;;;;;;;4905622;29;20151;-46
2022/07/28 10:13:52;;;;;;;5.15;2.70;;;;;;;;;;4905677;29;20024;-48
2022/07/28 10:16:19;;;;;;;4.55;2.75;;;;;;;;;;4906501;29;20032;-45
2022/07/28 10:18:46;;;;;;;2.90;2.65;;;;;;;;;;4906976;29;20032;-46
2022/07/28 10:21:15;;;;;;;3.75;2.70;;;;;;;;;;4908053;29;20481;-48
2022/07/28 10:24:20;;;;;;;4.38;2.70;;;;;;;;;;4910422;29;20028;-42
2022/07/28 10:26:47;;;;;;;6.00;2.85;;;;;;;;;;4846742;29;20124;-46
2022/07/28 10:29:18;;;;;;;3.47;2.47;;;;;;;;;;4895294;29;20096;-45
2022/07/28 10:31:48;;;;;;;2.25;2.10;;;;;;;;;;4911388;29;20039;-47
2022/07/28 10:34:21;;;;;;;4.95;2.28;;;;;;;;;;4916276;29;20067;-45
2022/07/28 10:36:48;;;;;;;3.83;2.40;;;;;;;;;;4915896;29;20036;-50
2022/07/28 10:39:18;;;;;;;5.28;2.80;;;;;;;;;;4916119;29;20036;-48
2022/07/28 10:41:44;;;;;;;3.03;1.90;;;;;;;;;;4915896;29;20032;-45
2022/07/28 10:44:17;;;;;;;2.50;2.30;;;;;;;;;;4912850;29;20062;-49
2022/07/28 10:46:43;;;;;;;4.85;2.50;;;;;;;;;;4896877;29;20144;-48
2022/07/28 10:49:10;;;;;;;8.95;2.72;;;;;;;;;;4896944;29;20037;-50
2022/07/28 10:51:40;;;;;;;2.90;2.20;;;;;;;;;;4897158;29;20073;-55
2022/07/28 10:54:29;;;;;;;3.40;2.60;;;;;;;;;;4898867;29;20556;-49
2022/07/28 10:56:56;;;;;;;3.42;2.38;;;;;;;;;;4891256;29;20072;-47
2022/07/28 10:59:47;;;;;;;2.42;2.22;;;;;;;;;;4897002;29;20039;-46
2022/07/28 11:02:45;;;;;;;2.92;2.00;;;;;;;;;;4899322;29;20028;-48
2022/07/28 11:05:33;;;;;;;5.93;2.50;;;;;;;;;;4905550;29;20046;-49
2022/07/28 11:08:03;;;;;;;2.65;2.00;;;;;;;;;;4911124;29;20040;-55
2022/07/28 11:10:48;;;;;;;5.88;2.70;;;;;;;;;;4915355;29;20054;-51
2022/07/28 11:13:34;;;;;;;3.33;2.08;;;;;;;;;;4912191;29;20035;-51
2022/07/28 11:16:12;;;;;;;6.07;2.28;;;;;;;;;;4896455;29;20036;-53
2022/07/28 11:19:04;;;;;;;9.10;2.30;;;;;;;;;;4896272;29;20536;-51
2022/07/28 11:21:30;;;;;;;2.83;2.13;;;;;;;;;;4891134;29;20056;-53
2022/07/28 11:23:56;;;;;;;2.85;2.10;;;;;;;;;;4896319;29;20096;-50
2022/07/28 11:26:22;;;;;;;2.22;2.10;;;;;;;;;;4896375;29;20052;-51
2022/07/28 11:28:57;;;;;;;3.17;1.90;;;;;;;;;;4900999;29;20116;-51
2022/07/28 11:31:48;;;;;;;6.78;2.17;;;;;;;;;;4906887;29;20036;-50
2022/07/28 11:34:16;;;;;;;3.55;2.33;;;;;;;;;;4915226;29;20036;-48
2022/07/28 11:37:03;;;;;;;6.38;2.30;;;;;;;;;;4914740;29;20036;-49
2022/07/28 11:39:36;;;;;;;4.07;2.05;;;;;;;;;;4915130;29;20043;-48
2022/07/28 11:42:28;;;;;;;5.35;2.22;;;;;;;;;;4914686;29;20031;-47
2022/07/28 11:44:55;;;;;;;4.50;2.67;;;;;;;;;;4903791;29;20051;-48
2022/07/28 11:47:25;;;;;;;2.33;1.98;;;;;;;;;;4899330;29;20087;-50
2022/07/28 11:50:08;;;;;;;2.33;1.60;;;;;;;;;;4904470;29;20029;-51
2022/07/28 11:52:35;;;;;;;3.28;2.03;;;;;;;;;;4904934;29;20031;-50
2022/07/28 11:55:01;;;;;;;3.33;1.90;;;;;;;;;;4903387;29;20033;-50
2022/07/28 11:57:27;;;;;;;2.08;1.92;;;;;;;;;;4903612;29;20044;-50
2022/07/28 11:59:54;;;;;;;3.78;2.20;;;;;;;;;;4904888;29;20414;-48
2022/07/28 12:02:25;;;;;;;4.43;2.40;;;;;;;;;;4899996;29;20039;-50
2022/07/28 12:05:04;;;;;;;3.20;1.92;;;;;;;;;;4895878;29;20037;-49
2022/07/28 12:07:33;;;;;;;2.67;1.83;;;;;;;;;;4895295;29;20445;-45
2022/07/28 12:10:00;;;;;;;3.05;1.92;;;;;;;;;;4895252;29;20044;-50
2022/07/28 12:12:28;;;;;;;2.08;1.83;;;;;;;;;;4893746;29;20053;-46
2022/07/28 12:14:55;;;;;;;4.03;1.80;;;;;;;;;;4886633;29;20021;-46
2022/07/28 12:17:30;;;;;;;3.63;1.90;;;;;;;;;;4890759;29;20037;-48
2022/07/28 12:20:02;;;;;;;2.17;2.00;;;;;;;;;;4886607;29;20494;-48
2022/07/28 12:22:28;;;;;;;2.75;2.15;;;;;;;;;;4886385;29;20032;-47
2022/07/28 12:24:56;;;;;;;13.38;2.20;;;;;;;;;;4886005;29;20040;-45
2022/07/28 12:27:26;;;;;;;2.90;2.13;;;;;;;;;;4897474;29;20040;-49
2022/07/28 12:29:55;;;;;;;;;;;;;;;;;;4904007;29;20036;-45
2022/07/28 12:32:29;;;;;;;4.05;2.00;;;;;;;;;;4902701;29;20296;-48
2022/07/28 12:34:54;;;;;;;4.65;2.20;;;;;;;;;;4901813;29;20040;-45
2022/07/28 12:37:22;;;;;;;2.40;1.73;;;;;;;;;;4902802;29;20031;-44
2022/07/28 12:39:50;;;;;;;4.05;2.35;;;;;;;;;;4901832;29;20079;-46
2022/07/28 12:42:16;;;;;;;3.72;1.98;;;;;;;;;;4901825;29;20037;-50
2022/07/28 12:44:43;;;;;;;2.13;1.92;;;;;;;;;;4894676;29;20104;-48
2022/07/28 12:47:10;;;;;;;2.72;1.95;;;;;;;;;;4894590;29;20037;-45
2022/07/28 12:49:38;;;;;;;7.50;1.95;;;;;;;;;;4897318;29;20058;-49
2022/07/28 12:52:21;;;;;;;3.35;2.05;;;;;;;;;;4904832;29;20032;-45
2022/07/28 12:54:47;;;;;;;4.68;2.33;;;;;;;;;;4905767;29;20127;-51
2022/07/28 12:57:12;;;;;;;6.20;2.20;;;;;;;;;;4913425;29;20111;-51
2022/07/28 12:59:38;;;;;;;3.30;2.10;;;;;;;;;;4907943;29;20040;-47
2022/07/28 13:02:08;;;;;;;3.90;2.20;;;;;;;;;;4913197;29;20036;-50
2022/07/28 13:04:43;;;;;;;333.52;260.48;;;;;;;;;;4913341;29;20535;-49
2022/07/28 13:07:22;;;;;;;10.55;6.50;;;;;;;;;;4903571;29;20032;-52
2022/07/28 13:09:59;;;;;;;3.90;2.00;;;;;;;;;;4895444;29;20028;-48
2022/07/28 13:12:25;;;;;;;2.78;1.90;;;;;;;;;;4895356;29;20131;-48
2022/07/28 13:14:54;;;;;;;2.65;1.90;;;;;;;;;;4895714;29;20103;-43
2022/07/28 13:17:22;;;;;;;38.85;3.83;;;;;;;;;;4893747;29;20084;-44
2022/07/28 13:19:48;;;;;;;3.47;2.13;;;;;;;;;;4896092;29;20033;-45
2022/07/28 13:22:34;;;;;;;10.38;2.10;;;;;;;;;;4895551;29;20032;-48
2022/07/28 13:25:00;;;;;;;5.07;2.08;;;;;;;;;;4895459;29;20580;-47
2022/07/28 13:27:27;;;;;;;4.65;2.13;;;;;;;;;;4895593;29;20036;-45
2022/07/28 13:29:52;;;;;;;2.00;1.80;;;;;;;;;;4895850;29;20041;-46
2022/07/28 13:32:18;;;;;;;4.30;2.00;;;;;;;;;;4895579;29;20404;-51
2022/07/28 13:34:44;;;;;;;5.35;1.98;;;;;;;;;;4895959;29;20032;-44
2022/07/28 13:37:10;;;;;;;4.00;2.38;;;;;;;;;;4895466;29;20020;-52
2022/07/28 13:39:39;;;;;;;2.25;2.05;;;;;;;;;;4895607;29;20028;-44
2022/07/28 13:42:05;;;;;;;5.55;2.10;;;;;;;;;;4895527;29;20556;-49
2022/07/28 13:44:32;;;;;;;3.05;2.13;;;;;;;;;;4894117;29;20064;-45
2022/07/28 13:47:00;;;;;;;4.57;2.25;;;;;;;;;;4895403;29;20041;-47
2022/07/28 13:49:31;;;;;;;2.28;1.90;;;;;;;;;;4895582;29;20048;-46
2022/07/28 13:51:58;;;;;;;3.53;2.10;;;;;;;;;;4894460;29;20033;-46
2022/07/28 13:54:24;;;;;;;6.15;2.58;;;;;;;;;;4895268;29;20021;-43
2022/07/28 13:56:50;;;;;;;7.68;2.10;;;;;;;;;;4895470;29;20500;-49
2022/07/28 13:59:15;;;;;;;2.25;1.98;;;;;;;;;;4895576;29;20125;-52
2022/07/28 14:01:41;;;;;;;7.63;2.10;;;;;;;;;;4892702;29;20107;-50
2022/07/28 14:04:07;;;;;;;2.55;2.20;;;;;;;;;;4895277;29;20033;-49
2022/07/28 14:06:33;;;;;;;3.65;2.10;;;;;;;;;;4904323;29;20036;-46
2022/07/28 14:08:59;;;;;;;6.38;2.25;;;;;;;;;;4910019;29;20492;-47
2022/07/28 14:11:25;;;;;;;2.03;1.90;;;;;;;;;;4913541;29;20134;-51
2022/07/28 14:13:51;;;;;;;6.88;2.20;;;;;;;;;;4913628;29;20020;-48
2022/07/28 14:16:21;;;;;;;16.20;2.55;;;;;;;;;;4896559;29;20044;-47
2022/07/28 14:18:47;;;;;;;2.55;1.92;;;;;;;;;;4897402;29;20044;-53
2022/07/28 14:21:13;;;;;;;8.60;2.20;;;;;;;;;;4904663;29;20035;-49
2022/07/28 14:23:40;;;;;;;4.53;2.10;;;;;;;;;;4895481;29;20032;-48
2022/07/28 14:26:06;;;;;;;2.95;1.83;;;;;;;;;;4897130;29;20382;-49
2022/07/28 14:28:32;;;;;;;3.40;1.90;;;;;;;;;;4897259;29;20028;-44
2022/07/28 14:30:58;;;;;;;4.07;2.40;;;;;;;;;;4898579;29;20036;-50
2022/07/28 14:33:23;;;;;;;5.10;1.95;;;;;;;;;;4897080;29;20107;-46
2022/07/28 14:35:49;;;;;;;4.00;2.20;;;;;;;;;;4898556;29;20052;-45
2022/07/28 14:38:14;;;;;;;8.90;2.13;;;;;;;;;;4906078;29;20040;-47
2022/07/28 14:40:40;;;;;;;5.28;2.00;;;;;;;;;;4907820;29;20381;-45
2022/07/28 14:43:06;;;;;;;2.00;1.80;;;;;;;;;;4912227;29;20495;-46
2022/07/28 14:45:32;;;;;;;3.13;1.70;;;;;;;;;;4906331;29;20048;-45
2022/07/28 14:47:58;;;;;;;6.88;2.30;;;;;;;;;;4907360;29;20035;-48
2022/07/28 14:50:24;;;;;;;2.63;1.92;;;;;;;;;;4897942;29;20037;-44